Cross Canyon, Arizona
Current Conditions -  °F | °C
As of 8:53 AM on Friday 28 Nov 2014 (Local Time) from KGUP Reporting Station
Clear Clear  
Wind Chill: 32°   Ceiling: Unl
Heat Index: 32°   Visibility: 10mi
Dew Point: 11°   Wind: 0mph
Humidity: 42%   Direction: NA
Pressure: 30.31"   Gusts: NA
Location:  35.6556°N, 109.102°W
Report Text: KGUP 281553Z AUTO 00000KT 10SM CLR 00/M12 A3031 RMK AO2 SLP279 T00001117
Loading
Personal Weather Stations






























Interactive Weather Map New forecast layout! Learn more

10-Day Weather Forecast

Advertisements
Track Severe Weather on mobile